createdAt,value
2022-08-17T00:03:10.642Z,7.30
2022-08-17T00:08:14.243Z,7.30
2022-08-17T00:13:26.539Z,5.93
2022-08-17T00:19:01.244Z,8.30
2022-08-17T00:23:53.714Z,8.52
2022-08-17T00:28:55.970Z,6.90
2022-08-17T00:33:58.077Z,6.00
2022-08-17T00:38:59.672Z,5.65
2022-08-17T00:44:05.116Z,5.85
2022-08-17T00:49:08.637Z,5.97
2022-08-17T00:54:18.921Z,7.82
2022-08-17T00:59:25.786Z,6.65
2022-08-17T01:04:29.788Z,8.88
2022-08-17T01:09:32.793Z,6.18
2022-08-17T01:14:34.761Z,6.07
2022-08-17T01:19:41.701Z,6.22
2022-08-17T01:24:46.997Z,5.43
2022-08-17T01:29:55.036Z,8.30
2022-08-17T01:34:57.597Z,4.70
2022-08-17T01:40:13.248Z,5.60
2022-08-17T01:45:21.979Z,5.40
2022-08-17T01:50:28.464Z,5.72
2022-08-17T01:55:38.098Z,8.50
2022-08-17T02:00:46.734Z,5.03
2022-08-17T02:06:02.689Z,6.47
2022-08-17T02:11:11.674Z,4.90
2022-08-17T02:16:13.507Z,5.22
2022-08-17T02:21:15.093Z,5.40
2022-08-17T02:26:25.754Z,5.97
2022-08-17T02:31:28.348Z,6.70
2022-08-17T02:36:29.945Z,6.40
2022-08-17T02:41:31.784Z,6.72
2022-08-17T02:46:33.431Z,5.40
2022-08-17T02:51:35.192Z,7.38
2022-08-17T02:56:36.763Z,7.35
2022-08-17T03:01:38.466Z,5.28
2022-08-17T03:06:40.084Z,6.53
2022-08-17T03:11:41.636Z,9.38
2022-08-17T03:16:43.210Z,7.13
2022-08-17T03:21:45.524Z,5.97
2022-08-17T03:26:47.075Z,6.88
2022-08-17T03:31:49.697Z,7.75
2022-08-17T03:36:51.250Z,7.82
2022-08-17T03:41:52.814Z,7.40
2022-08-17T03:46:54.474Z,8.93
2022-08-17T03:51:57.709Z,10.70
2022-08-17T03:57:08.979Z,6.20
2022-08-17T04:02:21.722Z,5.85
2022-08-17T04:07:28.152Z,7.93
2022-08-17T04:17:44.319Z,6.45
2022-08-17T04:23:06.550Z,5.88
2022-08-17T04:28:15.779Z,6.97
2022-08-17T04:33:21.906Z,12.88
2022-08-17T04:38:27.368Z,6.47
2022-08-17T04:43:31.539Z,4.60
2022-08-17T04:48:37.550Z,5.75
2022-08-17T04:53:51.067Z,7.90
2022-08-17T04:59:00.346Z,4.45
2022-08-17T05:04:20.889Z,5.50
2022-08-17T05:09:28.763Z,5.45
2022-08-17T05:14:33.742Z,5.65
2022-08-17T05:19:35.442Z,4.82
2022-08-17T05:24:50.382Z,4.78
2022-08-17T05:34:57.101Z,5.78
2022-08-17T05:39:58.686Z,5.57
2022-08-17T05:45:00.492Z,4.65
2022-08-17T05:50:02.675Z,6.47
2022-08-17T05:55:37.887Z,8.10
2022-08-17T06:00:52.391Z,4.25
2022-08-17T06:06:05.933Z,4.28
2022-08-17T06:11:10.193Z,6.72
2022-08-17T06:16:28.144Z,7.10
2022-08-17T06:21:39.381Z,7.25
2022-08-17T06:26:43.455Z,4.30
2022-08-17T06:31:45.249Z,9.82
2022-08-17T06:37:06.295Z,6.53
2022-08-17T06:42:55.125Z,5.05
2022-08-17T06:47:56.381Z,7.35
2022-08-17T06:53:14.517Z,5.60
2022-08-17T06:58:20.554Z,6.00
2022-08-17T07:03:48.423Z,6.38
2022-08-17T07:09:02.595Z,6.47
2022-08-17T07:14:13.997Z,7.95
2022-08-17T07:19:23.460Z,6.13
2022-08-17T07:24:36.978Z,4.60
2022-08-17T07:29:59.206Z,6.82
2022-08-17T07:35:10.646Z,6.43
2022-08-17T07:40:49.879Z,4.95
2022-08-17T07:46:03.747Z,7.50
2022-08-17T07:51:28.365Z,7.07
2022-08-17T07:56:42.427Z,6.68
2022-08-17T08:02:23.713Z,6.55
2022-08-17T08:08:02.991Z,5.88
2022-08-17T08:13:14.680Z,8.75
2022-08-17T08:18:54.862Z,9.77
2022-08-17T08:23:55.178Z,7.95
2022-08-17T08:29:31.554Z,9.18
2022-08-17T08:34:47.431Z,8.30
2022-08-17T08:40:10.559Z,9.88
2022-08-17T08:45:21.407Z,9.02
2022-08-17T08:50:47.785Z,10.60
2022-08-17T08:55:55.052Z,9.20
2022-08-17T09:00:59.710Z,10.50
2022-08-17T09:06:37.329Z,8.30
2022-08-17T09:12:02.140Z,11.43
2022-08-17T09:17:16.521Z,12.23
2022-08-17T09:22:33.456Z,11.80
2022-08-17T09:27:50.585Z,12.38
2022-08-17T09:32:58.612Z,12.98
2022-08-17T09:38:16.333Z,9.82
2022-08-17T09:43:41.148Z,10.85
2022-08-17T09:48:53.919Z,10.20
2022-08-17T09:54:09.462Z,10.32
2022-08-17T09:59:45.722Z,12.68
2022-08-17T10:05:13.260Z,10.30
2022-08-17T10:10:27.875Z,8.80
2022-08-17T10:15:50.187Z,12.63
2022-08-17T10:21:18.871Z,11.60
2022-08-17T10:26:24.361Z,10.95
2022-08-17T10:31:44.097Z,10.25
2022-08-17T10:36:45.635Z,10.25
2022-08-17T10:41:51.468Z,9.27
2022-08-17T10:47:12.612Z,10.32
2022-08-17T10:52:20.132Z,8.30
2022-08-17T10:57:30.589Z,10.32
2022-08-17T11:02:49.478Z,9.35
2022-08-17T11:08:03.301Z,11.43
2022-08-17T11:18:25.801Z,11.45
2022-08-17T11:23:52.533Z,10.20
2022-08-17T11:29:06.020Z,9.20
2022-08-17T11:34:13.825Z,10.85
2022-08-17T11:39:18.379Z,13.68
2022-08-17T11:49:56.151Z,12.40
2022-08-17T11:55:12.219Z,10.60
2022-08-17T12:00:46.507Z,9.50
2022-08-17T12:05:49.026Z,10.85
2022-08-17T12:11:56.324Z,10.98
2022-08-17T12:17:06.912Z,11.05
2022-08-17T12:22:08.452Z,10.88
2022-08-17T12:27:11.155Z,10.63
2022-08-17T12:32:20.400Z,11.43
2022-08-17T12:37:23.719Z,11.77
2022-08-17T12:42:38.434Z,13.70
2022-08-17T12:47:40.018Z,9.68
2022-08-17T12:52:43.506Z,10.73
2022-08-17T12:57:49.987Z,10.23
2022-08-17T13:03:19.541Z,9.70
2022-08-17T13:08:41.533Z,10.05
2022-08-17T13:13:48.698Z,11.30
2022-08-17T13:18:53.550Z,10.82
2022-08-17T13:24:13.452Z,10.07
2022-08-17T13:29:23.013Z,12.15
2022-08-17T13:34:24.502Z,10.80
2022-08-17T13:39:28.520Z,10.70
2022-08-17T13:44:31.619Z,11.27
2022-08-17T13:49:48.114Z,10.50
2022-08-17T13:54:51.685Z,10.35
2022-08-17T14:00:15.771Z,9.25
2022-08-17T14:05:17.468Z,10.00
2022-08-17T14:10:20.342Z,9.40
2022-08-17T14:15:55.452Z,13.05
2022-08-17T14:20:47.016Z,11.73
2022-08-17T14:25:48.632Z,10.60
2022-08-17T14:30:50.222Z,10.20
2022-08-17T14:35:51.949Z,11.25
2022-08-17T14:40:53.721Z,12.48
2022-08-17T14:45:55.426Z,11.65
2022-08-17T14:50:56.993Z,13.73
2022-08-17T14:55:58.672Z,12.18
2022-08-17T15:01:00.302Z,11.20
2022-08-17T15:06:01.961Z,12.40
2022-08-17T15:11:04.602Z,13.55
2022-08-17T15:16:06.421Z,9.73
2022-08-17T15:21:09.304Z,11.13
2022-08-17T15:26:11.473Z,10.65
2022-08-17T15:31:13.345Z,10.30
2022-08-17T15:36:15.001Z,10.70
2022-08-17T15:41:17.668Z,10.95
2022-08-17T15:46:22.098Z,11.90
2022-08-17T15:51:35.122Z,13.02
2022-08-17T15:56:38.009Z,9.18
2022-08-17T16:03:13.662Z,10.55
2022-08-17T16:07:01.161Z,11.65
2022-08-17T16:12:21.751Z,11.68
2022-08-17T16:17:38.718Z,10.30
2022-08-17T16:22:45.702Z,12.18
2022-08-17T16:27:50.097Z,10.70
2022-08-17T16:32:53.965Z,9.90
2022-08-17T16:37:56.533Z,10.88
2022-08-17T16:42:59.014Z,9.85
2022-08-17T16:48:00.717Z,10.40
2022-08-17T16:53:13.658Z,8.55
2022-08-17T16:58:15.745Z,12.40
2022-08-17T17:03:21.860Z,9.93
2022-08-17T17:08:33.920Z,17.00
2022-08-17T17:13:44.601Z,9.45
2022-08-17T17:19:34.326Z,11.10
2022-08-17T17:24:56.978Z,12.70
2022-08-17T17:30:12.813Z,8.80
2022-08-17T17:35:25.616Z,9.90
2022-08-17T17:40:54.802Z,10.23
2022-08-17T17:46:28.339Z,11.55
2022-08-17T17:52:09.146Z,11.95
2022-08-17T17:57:30.249Z,10.27
2022-08-17T18:02:46.541Z,10.35
2022-08-17T18:08:04.755Z,12.32
2022-08-17T18:13:47.807Z,11.70
2022-08-17T18:18:51.162Z,9.60
2022-08-17T18:23:55.394Z,13.75
2022-08-17T18:28:57.142Z,11.88
2022-08-17T18:34:45.826Z,11.38
2022-08-17T18:39:44.275Z,10.25
2022-08-17T18:44:46.004Z,11.45
2022-08-17T18:49:56.848Z,12.07
2022-08-17T18:55:13.609Z,9.45
2022-08-17T19:00:21.333Z,9.07
2022-08-17T19:05:39.825Z,11.02
2022-08-17T19:10:46.381Z,9.60
2022-08-17T19:16:13.834Z,9.18
2022-08-17T19:21:37.128Z,9.73
2022-08-17T19:26:55.382Z,10.45
2022-08-17T19:31:58.731Z,11.88
2022-08-17T19:37:09.255Z,12.95
2022-08-17T19:42:17.844Z,10.77
2022-08-17T19:48:04.650Z,10.20
2022-08-17T19:53:06.370Z,12.10
2022-08-17T19:58:38.636Z,9.30
2022-08-17T20:04:07.927Z,10.23
2022-08-17T20:09:29.697Z,11.40
2022-08-17T20:15:08.601Z,10.48
2022-08-17T20:20:31.810Z,8.77
2022-08-17T20:25:57.239Z,12.80
2022-08-17T20:30:58.960Z,9.48
2022-08-17T20:36:11.514Z,10.07
2022-08-17T20:41:14.859Z,10.05
2022-08-17T20:46:28.202Z,10.52
2022-08-17T20:51:33.849Z,10.15
2022-08-17T20:56:44.311Z,9.48
2022-08-17T21:02:05.166Z,8.90
2022-08-17T21:07:27.984Z,9.05
2022-08-17T21:13:01.682Z,8.55
2022-08-17T21:18:15.372Z,9.23
2022-08-17T21:23:31.601Z,10.52
2022-08-17T21:29:00.761Z,9.18
2022-08-17T21:34:15.291Z,10.70
2022-08-17T21:39:30.638Z,10.27
2022-08-17T21:44:37.373Z,10.68
2022-08-17T21:49:38.934Z,9.60
2022-08-17T21:54:48.496Z,10.52
2022-08-17T21:59:59.964Z,13.68
2022-08-17T22:05:13.947Z,12.98
2022-08-17T22:10:27.774Z,11.90
2022-08-17T22:15:29.486Z,9.68
2022-08-17T22:20:31.334Z,12.73
2022-08-17T22:25:37.007Z,12.70
2022-08-17T22:30:40.651Z,12.77
2022-08-17T22:35:43.382Z,12.73
2022-08-17T22:41:13.102Z,12.82
2022-08-17T22:46:15.450Z,12.57
2022-08-17T22:51:27.986Z,12.50
2022-08-17T22:56:29.724Z,13.57
2022-08-17T23:01:33.148Z,10.38
2022-08-17T23:06:36.880Z,12.35
2022-08-17T23:11:48.908Z,10.10
2022-08-17T23:16:51.676Z,14.70
2022-08-17T23:21:54.198Z,13.15
2022-08-17T23:26:57.384Z,11.88
2022-08-17T23:32:00.158Z,12.82
2022-08-17T23:37:01.869Z,14.10
2022-08-17T23:42:08.694Z,14.15
2022-08-17T23:47:10.942Z,14.63
2022-08-17T23:52:16.379Z,15.40
2022-08-17T23:57:20.545Z,16.70
